Time;durP1;ratioP1;P1;durP2;ratioP2;P2;SDS_P1;SDS_P2;PMS_P1;PMS_P2;Temp;Humidity;BMP_temperature;BMP_pressure;BME280_temperature;BME280_humidity;BME280_pressure;Samples;Min_cycle;Max_cycle;Signal;HPM_P1;HPM_P2
2021/12/15 00:02:26;;;;;;;33.13;19.30;;;;;;;1.60;74.70;95854.44;5009903;28;20805;-48
2021/12/15 00:04:54;;;;;;;35.92;20.23;;;;;;;1.52;74.19;95832.56;5009317;28;20033;-48
2021/12/15 00:07:23;;;;;;;32.28;18.45;;;;;;;1.57;75.13;95859.56;5009157;28;20022;-49
2021/12/15 00:09:50;;;;;;;26.25;13.63;;;;;;;1.57;74.64;95859.56;5008948;28;20085;-52
2021/12/15 00:12:16;;;;;;;31.77;17.05;;;;;;;1.55;74.70;95863.03;5008984;28;20488;-51
2021/12/15 00:14:44;;;;;;;32.63;17.98;;;;;;;0.67;74.64;95734.63;5009544;28;20108;-48
2021/12/15 00:17:10;;;;;;;34.83;18.88;;;;;;;1.46;74.88;95869.91;5009257;28;20050;-55
2021/12/15 00:19:37;;;;;;;34.42;19.83;;;;;;;1.50;75.04;95864.78;5009410;28;20025;-57
2021/12/15 00:22:04;;;;;;;35.92;19.15;;;;;;;1.44;74.48;95869.09;5009190;28;20034;-53
2021/12/15 00:24:30;;;;;;;36.13;18.88;;;;;;;1.43;75.05;95869.97;5008630;28;20049;-51
2021/12/15 00:26:56;;;;;;;36.72;18.33;;;;;;;1.13;74.88;95830.53;5009370;28;20018;-50
2021/12/15 00:29:24;;;;;;;29.35;17.10;;;;;;;1.39;75.07;95878.47;5009087;28;20022;-56
2021/12/15 00:31:50;;;;;;;32.95;19.08;;;;;;;1.36;75.12;95883.63;5008823;28;20033;-49
2021/12/15 00:34:17;;;;;;;31.63;18.80;;;;;;;1.37;75.35;95889.53;5009023;28;20504;-53
2021/12/15 00:36:46;;;;;;;30.70;17.58;;;;;;;1.36;75.79;95872.59;5006642;28;20470;-51
2021/12/15 00:39:17;;;;;;;34.95;18.73;;;;;;;1.29;76.36;95877.75;5008628;28;20042;-49
2021/12/15 00:41:43;;;;;;;29.00;16.23;;;;;;;1.19;75.97;95870.28;5008833;28;20076;-51
2021/12/15 00:44:09;;;;;;;30.42;18.77;;;;;;;1.10;76.08;95856.84;5008413;28;20355;-51
2021/12/15 00:46:36;;;;;;;25.63;15.00;;;;;;;1.20;75.74;95870.25;5008578;28;20037;-59
2021/12/15 00:49:03;;;;;;;31.50;17.92;;;;;;;1.24;76.37;95876.97;5008209;28;20413;-53
2021/12/15 00:51:28;;;;;;;26.00;14.38;;;;;;;1.23;76.45;95871.91;5008395;28;20057;-50
2021/12/15 00:53:54;;;;;;;28.45;16.52;;;;;;;1.22;76.31;95868.53;5008490;28;20465;-52
2021/12/15 00:56:20;;;;;;;24.95;14.70;;;;;;;1.12;76.05;95841.56;5008208;28;20399;-52
2021/12/15 00:58:45;;;;;;;34.35;18.52;;;;;;;1.12;75.79;95846.66;5008651;28;20702;-50
2021/12/15 01:01:11;;;;;;;20.90;11.65;;;;;;;1.05;76.07;95850.97;5008022;28;20033;-56
2021/12/15 01:03:37;;;;;;;25.83;15.73;;;;;;;0.89;76.14;95814.75;5008386;28;20535;-54
2021/12/15 01:06:12;;;;;;;32.63;18.98;;;;;;;1.18;75.94;95856.75;5008431;28;20164;-53
2021/12/15 01:08:42;;;;;;;29.13;15.90;;;;;;;1.21;75.67;95859.22;5008509;28;20033;-52
2021/12/15 01:11:22;;;;;;;29.95;16.70;;;;;;;1.25;75.73;95853.25;5008619;28;20543;-53
2021/12/15 01:22:10;;;;;;;28.13;15.20;;;;;;;1.21;74.99;95853.31;5008600;28;20048;-54
2021/12/15 01:24:36;;;;;;;28.30;16.65;;;;;;;1.22;74.82;95862.63;5006518;28;20030;-51
2021/12/15 01:27:02;;;;;;;28.90;16.75;;;;;;;1.26;74.33;95860.03;5008279;28;20044;-52
2021/12/15 01:29:27;;;;;;;24.85;16.02;;;;;;;1.29;74.70;95854.03;5008205;28;20030;-56
2021/12/15 01:31:53;;;;;;;21.85;10.80;;;;;;;1.32;73.09;95858.25;5008136;28;20029;-50
2021/12/15 01:34:18;;;;;;;24.33;14.80;;;;;;;1.29;73.73;95862.50;5008309;28;20058;-52
2021/12/15 01:36:44;;;;;;;24.75;13.65;;;;;;;1.32;73.28;95868.44;5007767;28;20041;-49
2021/12/15 01:39:09;;;;;;;25.50;15.77;;;;;;;1.06;73.74;95854.34;5008286;28;20030;-58
2021/12/15 01:41:36;;;;;;;25.15;15.02;;;;;;;1.19;74.03;95862.66;5008310;28;20041;-61
2021/12/15 01:49:45;;;;;;;29.80;17.27;;;;;;;1.18;74.29;95861.81;5005061;28;20049;-50
2021/12/15 01:52:26;;;;;;;25.23;14.45;;;;;;;1.08;73.94;95840.78;5005290;28;20032;-57
2021/12/15 01:54:59;;;;;;;28.00;15.18;;;;;;;1.26;73.77;95849.00;5005256;28;20115;-48
2021/12/15 01:57:28;;;;;;;29.42;15.65;;;;;;;0.96;73.55;95822.31;5005448;28;20604;-49
2021/12/15 01:59:55;;;;;;;25.45;14.05;;;;;;;0.62;73.74;95774.47;5004779;28;20042;-54
2021/12/15 02:02:22;;;;;;;25.23;14.95;;;;;;;1.21;73.90;95854.13;4989300;28;20038;-51
2021/12/15 02:04:49;;;;;;;23.08;12.82;;;;;;;0.93;73.89;95814.72;5005101;28;20105;-56
2021/12/15 02:07:17;;;;;;;26.67;14.32;;;;;;;1.02;73.97;95845.09;5004964;28;20537;-51
2021/12/15 02:12:15;;;;;;;22.55;12.55;;;;;;;1.00;74.36;95854.41;5008243;28;20040;-52
2021/12/15 02:14:40;;;;;;;24.10;14.32;;;;;;;1.02;74.68;95858.63;5008725;28;20057;-56
2021/12/15 02:17:06;;;;;;;32.05;17.70;;;;;;;1.00;74.88;95855.28;5008559;28;20065;-54
2021/12/15 02:19:32;;;;;;;30.85;17.98;;;;;;;1.06;74.07;95855.16;5008666;28;20049;-54
2021/12/15 02:21:59;;;;;;;26.15;15.77;;;;;;;1.06;74.20;95860.25;5024895;28;20107;-52
2021/12/15 02:24:25;;;;;;;25.85;15.70;;;;;;;1.11;73.97;95857.66;5008187;28;20061;-50
2021/12/15 02:26:57;;;;;;;18.88;11.43;;;;;;;0.94;73.45;95850.25;5010772;28;20057;-50
2021/12/15 02:29:24;;;;;;;24.05;13.43;;;;;;;1.00;74.50;95857.81;5011225;28;20083;-49
2021/12/15 02:31:58;;;;;;;28.15;14.68;;;;;;;1.08;73.93;95855.16;5011178;28;20034;-49
2021/12/15 02:34:44;;;;;;;26.55;14.52;;;;;;;1.03;73.65;95851.84;5011027;28;20034;-51
2021/12/15 02:37:17;;;;;;;26.75;15.55;;;;;;;0.94;74.01;95857.03;5010297;28;20493;-49
2021/12/15 02:39:49;;;;;;;25.10;14.63;;;;;;;0.97;74.18;95850.22;5010796;28;20026;-50
2021/12/15 02:42:15;;;;;;;23.48;13.40;;;;;;;0.90;74.00;95863.84;5010987;28;20014;-50
2021/12/15 02:44:43;;;;;;;25.50;13.95;;;;;;;0.70;74.14;95829.34;5010931;28;20462;-50
2021/12/15 02:47:15;;;;;;;25.38;14.57;;;;;;;0.78;74.64;95849.59;5010618;28;20033;-49
2021/12/15 02:49:42;;;;;;;25.05;15.38;;;;;;;0.53;74.58;95816.88;5010404;28;20104;-48
2021/12/15 02:52:08;;;;;;;24.52;13.82;;;;;;;0.77;74.49;95855.53;5010385;28;20029;-49
2021/12/15 02:54:35;;;;;;;22.73;13.35;;;;;;;0.72;74.70;95864.88;5010961;28;20092;-54
2021/12/15 02:57:12;;;;;;;22.88;12.57;;;;;;;0.72;73.47;95849.66;5010626;28;20496;-54
2021/12/15 02:59:56;;;;;;;22.10;13.60;;;;;;;0.80;72.93;95868.19;5010140;28;20033;-50
2021/12/15 03:05:34;;;;;;;19.30;12.02;;;;;;;0.64;72.91;95859.03;5010593;28;20421;-55
2021/12/15 03:08:11;;;;;;;;;;;;;;;0.64;72.78;95865.00;5010546;28;20214;-50
2021/12/15 03:16:09;;;;;;;26.13;13.32;;;;;;;0.54;73.06;95858.31;5010514;28;20127;-48
2021/12/15 03:18:35;;;;;;;22.73;12.38;;;;;;;0.57;72.84;95865.88;5010032;28;20066;-50
2021/12/15 03:21:03;;;;;;;22.08;11.90;;;;;;;0.70;71.76;95872.50;5009650;28;20093;-48
2021/12/15 03:23:49;;;;;;;17.85;10.57;;;;;;;0.64;71.80;95874.28;5009801;28;20025;-51
2021/12/15 03:26:39;;;;;;;21.95;12.73;;;;;;;0.62;71.71;95879.38;5010077;28;20036;-52
2021/12/15 03:35:02;;;;;;;17.83;10.75;;;;;;;0.75;70.39;95876.72;5010423;28;20416;-56
2021/12/15 03:37:30;;;;;;;21.15;12.55;;;;;;;0.81;70.85;95874.13;5009198;28;20077;-54
2021/12/15 03:40:01;;;;;;;20.88;11.18;;;;;;;0.86;69.69;95863.03;5009870;28;20413;-54
2021/12/15 03:42:31;;;;;;;20.10;12.45;;;;;;;0.90;69.97;95877.41;5009826;28;20103;-52
2021/12/15 03:44:58;;;;;;;20.20;12.55;;;;;;;0.82;70.03;95871.56;5008046;28;20030;-49
2021/12/15 03:47:28;;;;;;;18.98;10.57;;;;;;;0.95;69.95;95884.09;5009302;28;20034;-52
2021/12/15 03:49:56;;;;;;;19.65;11.73;;;;;;;0.92;70.36;95887.53;5009687;28;20072;-51
2021/12/15 03:52:22;;;;;;;18.63;8.77;;;;;;;0.75;69.95;95864.03;5009599;28;20042;-50
2021/12/15 03:54:48;;;;;;;16.85;10.15;;;;;;;0.78;69.87;95866.53;5009686;28;20169;-50
2021/12/15 03:57:15;;;;;;;17.85;9.95;;;;;;;0.80;69.71;95873.25;5009340;28;20037;-48
2021/12/15 03:59:43;;;;;;;17.52;11.00;;;;;;;0.70;69.91;95884.38;5009352;28;20045;-53
2021/12/15 04:02:11;;;;;;;17.05;10.23;;;;;;;0.45;70.41;95838.13;5009420;28;20041;-54
2021/12/15 04:04:38;;;;;;;21.27;11.70;;;;;;;0.70;70.66;95902.97;5009561;28;20025;-49
2021/12/15 04:07:06;;;;;;;15.63;9.85;;;;;;;0.42;70.81;95869.44;5008994;28;20519;-48
2021/12/15 04:09:31;;;;;;;20.30;13.25;;;;;;;0.50;70.94;95887.94;5009504;28;20049;-50
2021/12/15 04:11:57;;;;;;;19.85;12.00;;;;;;;0.59;70.97;95883.66;5008902;28;20029;-52
2021/12/15 04:14:28;;;;;;;19.42;11.93;;;;;;;0.71;70.47;95901.31;5009508;28;20053;-50
2021/12/15 04:17:01;;;;;;;20.90;11.23;;;;;;;0.63;70.79;95909.00;5009106;28;20029;-52
2021/12/15 04:19:27;;;;;;;16.50;10.60;;;;;;;0.46;70.93;95888.00;5009433;28;20079;-58
2021/12/15 04:21:53;;;;;;;16.00;10.02;;;;;;;0.61;70.71;95917.47;5009206;28;20128;-53
2021/12/15 04:24:20;;;;;;;26.25;13.60;;;;;;;0.56;71.12;95904.84;5008507;28;20030;-52
2021/12/15 04:26:47;;;;;;;20.67;12.70;;;;;;;0.50;71.38;95915.88;5009250;28;20236;-51
2021/12/15 04:29:13;;;;;;;18.30;11.25;;;;;;;0.47;71.07;95910.00;5008873;28;20109;-51
2021/12/15 04:31:49;;;;;;;20.02;12.05;;;;;;;-0.12;71.67;95834.38;5008728;28;20041;-54
2021/12/15 04:34:15;;;;;;;16.70;11.15;;;;;;;0.16;71.70;95883.22;5008717;28;20715;-50
2021/12/15 04:36:44;;;;;;;25.40;13.63;;;;;;;0.38;72.52;95922.75;5008673;28;20608;-52
2021/12/15 04:39:26;;;;;;;13.95;9.23;;;;;;;0.44;71.37;95925.25;5008637;28;20394;-57
2021/12/15 04:41:54;;;;;;;22.77;12.43;;;;;;;0.41;71.89;95913.44;5008732;28;20693;-60
2021/12/15 04:44:23;;;;;;;20.20;11.02;;;;;;;0.35;71.14;95932.06;5008545;28;20022;-52
2021/12/15 04:46:59;;;;;;;21.17;11.90;;;;;;;0.51;71.36;95931.97;5005271;28;20037;-55
2021/12/15 04:49:26;;;;;;;19.58;12.35;;;;;;;0.42;71.66;95921.88;4994158;28;20037;-48
2021/12/15 04:51:52;;;;;;;19.55;11.70;;;;;;;0.50;71.29;95920.94;4989145;28;20096;-48
2021/12/15 04:54:18;;;;;;;12.38;8.43;;;;;;;0.50;70.67;95930.25;5001845;28;20026;-49
2021/12/15 04:56:44;;;;;;;21.52;12.45;;;;;;;0.51;70.34;95920.09;5008571;28;20548;-52
2021/12/15 04:59:10;;;;;;;19.55;13.00;;;;;;;0.54;70.96;95921.75;5008550;28;20026;-54
2021/12/15 05:01:35;;;;;;;19.30;11.90;;;;;;;0.45;71.11;95932.84;5008038;28;20026;-50
2021/12/15 05:04:01;;;;;;;17.30;11.10;;;;;;;0.51;70.59;95927.72;5007245;28;20081;-55
2021/12/15 05:06:27;;;;;;;25.30;14.93;;;;;;;0.59;70.89;95926.78;5008474;28;20034;-51
2021/12/15 05:08:53;;;;;;;20.67;12.90;;;;;;;0.57;70.87;95931.88;5008375;28;20036;-51
2021/12/15 05:11:19;;;;;;;20.83;12.00;;;;;;;0.46;70.41;95913.38;5007804;28;20025;-51
2021/12/15 05:13:44;;;;;;;20.90;12.93;;;;;;;-0.32;71.18;95806.66;5008012;28;20022;-52
2021/12/15 05:16:10;;;;;;;19.85;12.75;;;;;;;0.30;71.32;95910.97;5008195;28;20061;-47
2021/12/15 05:18:36;;;;;;;23.25;13.93;;;;;;;0.37;70.34;95911.75;5008401;28;20108;-49
2021/12/15 05:21:02;;;;;;;21.00;13.68;;;;;;;0.53;70.60;95938.69;5023332;28;20048;-55
2021/12/15 05:23:30;;;;;;;24.27;15.23;;;;;;;0.55;70.51;95943.75;5008071;28;20030;-53
2021/12/15 05:25:58;;;;;;;24.00;14.82;;;;;;;0.63;70.35;95939.44;5008298;28;20030;-53
2021/12/15 05:28:24;;;;;;;22.73;11.15;;;;;;;0.68;69.98;95929.25;5008346;28;20079;-53
2021/12/15 05:30:50;;;;;;;18.95;10.98;;;;;;;0.58;69.57;95928.50;5007679;28;20444;-52
2021/12/15 05:33:15;;;;;;;19.40;11.73;;;;;;;0.49;69.61;95919.28;5008495;28;20429;-48
2021/12/15 05:35:41;;;;;;;20.17;11.18;;;;;;;0.36;70.93;95937.97;5007961;28;20049;-54
2021/12/15 05:38:09;;;;;;;20.20;11.88;;;;;;;0.16;70.95;95895.03;5007924;28;20046;-51
2021/12/15 05:40:36;;;;;;;21.20;10.10;;;;;;;0.48;70.96;95942.13;5007918;28;20030;-52
2021/12/15 05:43:03;;;;;;;19.63;11.25;;;;;;;0.33;71.03;95949.00;5009410;28;20501;-48
2021/12/15 05:45:32;;;;;;;23.45;14.55;;;;;;;0.35;71.18;95942.22;5011778;28;20088;-59
2021/12/15 05:47:59;;;;;;;20.23;12.52;;;;;;;0.46;70.86;95947.22;5011426;28;20124;-52
2021/12/15 05:50:28;;;;;;;24.63;15.27;;;;;;;0.54;70.27;95950.53;5011167;28;20026;-59
2021/12/15 05:52:54;;;;;;;19.70;11.85;;;;;;;0.29;69.97;95899.13;5011805;28;20034;-50
2021/12/15 05:55:20;;;;;;;23.27;14.13;;;;;;;0.53;70.11;95936.16;5011556;28;20028;-49
2021/12/15 05:57:46;;;;;;;17.08;10.02;;;;;;;0.42;69.95;95939.66;5011767;28;20508;-47
2021/12/15 06:00:22;;;;;;;22.08;12.02;;;;;;;0.27;70.47;95908.47;5010977;28;20033;-59
2021/12/15 06:02:48;;;;;;;21.63;10.93;;;;;;;0.35;70.17;95932.06;5011659;28;20481;-51
2021/12/15 06:05:14;;;;;;;20.52;12.00;;;;;;;0.40;70.15;95934.59;5011487;28;20030;-48
2021/12/15 06:07:41;;;;;;;14.15;8.90;;;;;;;0.43;69.62;95949.78;5011470;28;20030;-49
2021/12/15 06:10:10;;;;;;;20.02;12.55;;;;;;;0.41;69.66;95932.88;5010885;28;20120;-54
2021/12/15 06:12:36;;;;;;;13.32;8.70;;;;;;;0.49;69.72;95942.13;5010367;28;20030;-50
2021/12/15 06:15:02;;;;;;;17.58;10.60;;;;;;;0.23;69.68;95909.38;5010692;28;20030;-50
2021/12/15 06:17:28;;;;;;;18.90;11.32;;;;;;;0.46;69.68;95954.84;5011088;28;20033;-50
2021/12/15 06:19:54;;;;;;;19.73;12.52;;;;;;;0.35;69.72;95936.31;5007764;28;20460;-50
2021/12/15 06:22:25;;;;;;;18.30;10.50;;;;;;;0.25;69.75;95925.41;5008168;28;20484;-46
2021/12/15 06:24:55;;;;;;;15.43;9.88;;;;;;;0.38;69.46;95936.28;5006365;28;20049;-56
2021/12/15 06:27:22;;;;;;;20.00;12.85;;;;;;;0.36;69.61;95923.63;5000609;28;20138;-58
2021/12/15 06:29:49;;;;;;;14.40;9.07;;;;;;;0.43;69.55;95954.84;5007558;28;20131;-53
2021/12/15 06:32:16;;;;;;;17.05;10.13;;;;;;;0.39;70.13;95952.34;5006947;28;20034;-53
2021/12/15 06:34:42;;;;;;;13.45;10.18;;;;;;;0.28;70.04;95954.97;4998651;28;20049;-54
2021/12/15 06:37:09;;;;;;;18.25;10.35;;;;;;;0.20;70.37;95949.09;4999901;28;20046;-57
2021/12/15 06:39:35;;;;;;;20.35;11.98;;;;;;;0.27;70.72;95948.22;4999335;28;20038;-53
2021/12/15 06:42:01;;;;;;;20.15;11.43;;;;;;;0.18;70.33;95936.44;5006922;28;20038;-52
2021/12/15 06:44:27;;;;;;;17.27;12.45;;;;;;;0.05;69.82;95915.41;5006531;28;20064;-53
2021/12/15 07:00:42;;;;;;;17.10;11.50;;;;;;;0.51;69.32;95970.88;5005460;28;20052;-61
2021/12/15 07:03:08;;;;;;;18.88;11.20;;;;;;;0.60;69.16;95972.47;5006769;28;20164;-57
2021/12/15 07:05:34;;;;;;;17.13;9.18;;;;;;;0.62;68.83;95975.81;5005848;28;20445;-55
2021/12/15 07:08:04;;;;;;;19.17;10.70;;;;;;;0.61;68.97;95973.31;5007292;28;20040;-59
2021/12/15 07:10:33;;;;;;;18.80;11.13;;;;;;;0.62;69.35;95980.91;5002184;28;20497;-63
2021/12/15 07:13:01;;;;;;;14.70;8.90;;;;;;;0.59;69.15;95986.03;5006538;28;20037;-61
2021/12/15 07:15:27;;;;;;;13.02;8.38;;;;;;;0.45;69.68;95975.97;5006258;28;20559;-62
2021/12/15 07:18:00;;;;;;;10.75;7.93;;;;;;;0.54;69.21;95983.53;5006207;28;20030;-61
2021/12/15 07:20:35;;;;;;;17.98;9.00;;;;;;;0.50;69.47;95978.47;5007962;28;20426;-64
2021/12/15 07:23:04;;;;;;;17.67;10.15;;;;;;;0.14;70.29;95958.44;5009708;28;20030;-58
2021/12/15 07:25:30;;;;;;;16.48;8.93;;;;;;;0.40;69.71;96000.56;5003655;28;20170;-61
2021/12/15 07:27:57;;;;;;;14.25;8.80;;;;;;;0.33;70.09;95983.72;5007950;28;20470;-60
2021/12/15 07:30:23;;;;;;;19.20;11.13;;;;;;;0.32;69.99;95979.47;5008755;28;20029;-59
2021/12/15 07:32:49;;;;;;;13.65;8.60;;;;;;;0.48;69.96;96001.34;5009571;28;20018;-57
2021/12/15 07:35:16;;;;;;;14.07;9.40;;;;;;;0.22;70.16;95972.78;5009315;28;20045;-61
2021/12/15 07:37:41;;;;;;;15.25;8.60;;;;;;;0.22;70.46;95967.72;5009316;28;20058;-61
2021/12/15 07:40:12;;;;;;;14.43;10.68;;;;;;;0.51;69.69;96006.41;4995176;28;20033;-64
2021/12/15 07:42:54;;;;;;;15.85;9.27;;;;;;;0.57;69.34;96000.41;4989865;28;20038;-61
2021/12/15 07:45:22;;;;;;;;;;;;;;;0.68;69.46;96002.88;4990213;28;20061;-66
2021/12/15 07:47:55;;;;;;;16.75;9.07;;;;;;;0.58;69.08;96002.09;4989881;28;20310;-57
2021/12/15 07:50:22;;;;;;;18.02;9.60;;;;;;;0.68;69.14;96006.25;4990010;28;20085;-58
2021/12/15 07:52:49;;;;;;;15.55;11.20;;;;;;;0.75;68.55;96003.66;4990365;28;20031;-59
2021/12/15 07:55:15;;;;;;;15.23;10.00;;;;;;;0.69;69.03;96012.19;4989684;28;20429;-58
2021/12/15 07:57:40;;;;;;;15.93;10.20;;;;;;;0.67;69.39;96018.94;4990113;28;20034;-59
2021/12/15 08:00:08;;;;;;;18.95;11.80;;;;;;;0.66;69.21;96015.56;4989456;28;20105;-63
2021/12/15 08:05:56;;;;;;;15.43;9.80;;;;;;;0.68;69.43;96025.72;4989792;28;20053;-67
2021/12/15 08:08:22;;;;;;;19.50;13.02;;;;;;;0.46;69.26;95974.28;4992620;28;20489;-68
2021/12/15 08:10:48;;;;;;;16.77;12.27;;;;;;;0.90;69.11;96022.16;4988135;28;20031;-67
2021/12/15 08:13:15;;;;;;;21.27;13.45;;;;;;;1.06;68.82;96034.69;4989325;28;20061;-58
2021/12/15 08:15:42;;;;;;;23.67;12.00;;;;;;;1.02;68.62;96033.06;4988122;28;20042;-59
2021/12/15 08:18:08;;;;;;;19.25;12.88;;;;;;;1.07;68.03;96024.53;4989711;28;20030;-56
2021/12/15 08:20:34;;;;;;;20.33;13.30;;;;;;;1.20;67.72;96039.66;4989516;28;20121;-55
2021/12/15 08:23:01;;;;;;;19.30;12.38;;;;;;;1.07;68.13;96031.31;4989543;28;20525;-57
2021/12/15 08:25:27;;;;;;;27.02;13.38;;;;;;;1.11;68.57;96038.03;5004712;28;20033;-57
2021/12/15 08:27:53;;;;;;;17.92;11.32;;;;;;;1.02;68.50;96038.13;5009281;28;20026;-58
2021/12/15 08:30:25;;;;;;;13.18;8.60;;;;;;;0.87;69.14;96044.16;5008870;28;20034;-61
2021/12/15 08:32:55;;;;;;;15.05;8.68;;;;;;;0.83;68.87;96039.97;5009616;28;20033;-57
2021/12/15 08:35:23;;;;;;;17.02;10.63;;;;;;;0.79;68.97;96039.19;5008904;28;20061;-60
2021/12/15 08:37:49;;;;;;;17.52;11.75;;;;;;;0.94;69.17;96052.59;5007942;28;20076;-58
2021/12/15 08:40:16;;;;;;;19.33;10.40;;;;;;;0.87;68.81;96047.56;4993098;28;20034;-63
2021/12/15 08:42:41;;;;;;;13.95;8.60;;;;;;;0.78;69.20;96062.03;4989354;28;20034;-58
2021/12/15 08:45:08;;;;;;;16.45;9.43;;;;;;;0.75;69.00;96052.72;4988977;28;20030;-59
2021/12/15 08:47:34;;;;;;;17.38;10.38;;;;;;;0.77;68.77;96053.59;4988475;28;20153;-61
2021/12/15 08:50:00;;;;;;;15.00;8.52;;;;;;;0.71;69.55;96048.56;4989128;28;20067;-58
2021/12/15 08:52:26;;;;;;;14.80;9.75;;;;;;;0.89;68.83;96057.72;4988990;28;20065;-60
2021/12/15 08:54:51;;;;;;;18.90;10.85;;;;;;;0.63;68.98;96007.16;5000109;28;20029;-60
2021/12/15 08:57:17;;;;;;;17.27;10.07;;;;;;;0.58;68.57;96014.81;5008552;28;20052;-59
2021/12/15 08:59:42;;;;;;;20.95;11.90;;;;;;;0.81;69.21;96065.38;5008529;28;20076;-60
2021/12/15 09:02:08;;;;;;;22.17;12.30;;;;;;;0.61;69.10;96030.00;5009600;28;20485;-63
2021/12/15 09:04:33;;;;;;;20.08;11.57;;;;;;;0.70;68.73;96035.00;5009437;28;20029;-60
2021/12/15 09:06:59;;;;;;;18.40;10.73;;;;;;;0.90;69.34;96059.38;5009066;28;20021;-63
2021/12/15 09:09:27;;;;;;;18.50;10.75;;;;;;;0.78;68.88;96046.81;5000218;28;20102;-59
2021/12/15 09:11:53;;;;;;;16.88;9.32;;;;;;;0.85;69.03;96048.41;4988924;28;20108;-58
2021/12/15 09:14:19;;;;;;;18.38;11.98;;;;;;;0.89;68.96;96056.00;4989599;28;20030;-59
2021/12/15 09:16:47;;;;;;;23.30;9.95;;;;;;;0.82;69.24;96038.28;4988945;28;20438;-56
2021/12/15 09:19:14;;;;;;;18.77;10.93;;;;;;;0.90;69.08;96054.31;5007177;28;20053;-57
2021/12/15 09:21:42;;;;;;;16.42;9.25;;;;;;;0.86;69.35;96045.03;5008460;28;20029;-66
2021/12/15 09:24:08;;;;;;;15.32;9.23;;;;;;;0.90;68.75;96033.97;5002254;28;20018;-61
2021/12/15 09:26:34;;;;;;;19.05;11.07;;;;;;;0.77;68.77;96025.66;4989462;28;20074;-62
2021/12/15 09:29:00;;;;;;;20.85;11.35;;;;;;;0.79;69.01;96006.16;4989015;28;20038;-60
2021/12/15 09:31:27;;;;;;;16.73;10.20;;;;;;;0.85;68.66;96033.19;4989316;28;20318;-60
2021/12/15 09:33:55;;;;;;;16.08;9.23;;;;;;;0.99;68.91;96046.63;4989269;28;20029;-69
2021/12/15 09:36:23;;;;;;;12.30;8.07;;;;;;;0.85;69.41;96043.34;4988627;28;20038;-68
2021/12/15 09:38:53;;;;;;;15.23;9.52;;;;;;;0.90;69.59;96049.22;4992332;28;20049;-66
2021/12/15 09:41:20;;;;;;;16.13;10.25;;;;;;;0.94;69.75;96058.50;5008688;28;20034;-67
2021/12/15 09:43:48;;;;;;;18.48;11.68;;;;;;;0.85;69.15;96025.56;5009292;28;20022;-69
2021/12/15 09:46:30;;;;;;;22.13;13.10;;;;;;;1.06;69.10;96045.69;5009268;28;20026;-69
2021/12/15 09:57:35;;;;;;;16.83;11.25;;;;;;;0.83;69.72;96056.06;4987236;28;20062;-64
2021/12/15 10:02:57;;;;;;;18.60;11.27;;;;;;;0.90;69.22;96050.09;4988546;28;20465;-62
2021/12/15 10:05:42;;;;;;;18.27;10.35;;;;;;;0.81;69.60;96064.56;4987049;28;20065;-68
2021/12/15 10:19:23;;;;;;;20.58;13.63;;;;;;;0.90;70.55;96031.44;5007923;28;20125;-59
2021/12/15 10:22:01;;;;;;;23.83;13.85;;;;;;;1.06;70.10;96032.97;5007355;28;20044;-61
2021/12/15 10:24:34;;;;;;;17.35;9.65;;;;;;;0.80;69.97;95996.84;5006486;28;20477;-61
2021/12/15 10:27:05;;;;;;;22.67;13.35;;;;;;;1.11;69.92;96030.41;5007026;28;20512;-61
2021/12/15 10:29:30;;;;;;;;;;;;;;;1.08;69.75;96031.28;5010024;28;20476;-60
2021/12/15 10:32:05;;;;;;;17.30;11.93;;;;;;;1.16;70.04;96027.81;5011115;28;19913;-62
2021/12/15 10:34:30;;;;;;;15.55;9.73;;;;;;;0.94;70.59;96017.03;5011240;28;20298;-63
2021/12/15 10:36:57;;;;;;;22.05;11.88;;;;;;;0.94;70.95;96027.19;5010791;28;20109;-69
2021/12/15 10:39:24;;;;;;;14.95;10.63;;;;;;;1.03;70.71;96016.94;5010299;28;20028;-68
2021/12/15 10:41:53;;;;;;;19.63;12.45;;;;;;;1.16;70.27;96018.50;5008919;28;20116;-63
2021/12/15 10:44:24;;;;;;;16.90;10.45;;;;;;;1.26;70.24;96009.94;5011044;28;20109;-62
2021/12/15 10:46:55;;;;;;;22.92;14.85;;;;;;;1.38;69.18;96015.75;5010687;28;20033;-65
2021/12/15 10:49:26;;;;;;;;;;;;;;;1.35;69.71;96018.31;5009473;28;20044;-68
2021/12/15 10:52:03;;;;;;;22.23;14.45;;;;;;;1.25;70.34;96005.72;5010514;28;19921;-64
2021/12/15 10:54:35;;;;;;;16.13;10.35;;;;;;;0.96;70.46;95978.06;5009982;28;20034;-64
2021/12/15 10:57:14;;;;;;;20.92;13.48;;;;;;;1.15;71.00;96018.50;5010558;28;20029;-66
2021/12/15 10:59:48;;;;;;;19.38;11.90;;;;;;;1.19;71.05;96021.00;5009728;28;20026;-64
2021/12/15 11:02:29;;;;;;;22.77;13.85;;;;;;;1.15;70.86;96005.81;5010421;28;20026;-60
2021/12/15 11:05:15;;;;;;;26.67;15.63;;;;;;;1.19;71.36;96003.22;5010361;28;20393;-62
2021/12/15 11:07:52;;;;;;;22.58;14.63;;;;;;;1.41;70.44;96013.16;5009833;28;20111;-64
2021/12/15 11:10:27;;;;;;;17.80;11.93;;;;;;;1.47;70.33;96019.00;5009771;28;20401;-64
2021/12/15 11:12:57;;;;;;;28.15;15.07;;;;;;;1.55;70.60;96013.84;5009590;28;20083;-66
2021/12/15 11:15:40;;;;;;;24.58;15.40;;;;;;;1.42;70.33;95989.44;5009843;28;20037;-70
2021/12/15 11:18:24;;;;;;;21.95;13.57;;;;;;;1.71;69.90;96001.78;5009983;28;20025;-68
2021/12/15 11:20:51;;;;;;;27.08;14.75;;;;;;;1.84;69.64;95994.84;5010112;28;20468;-62
2021/12/15 11:23:22;;;;;;;18.88;12.23;;;;;;;1.77;69.29;95998.31;5010004;28;20088;-65
2021/12/15 11:25:50;;;;;;;28.48;15.98;;;;;;;1.74;69.45;96004.31;4991306;28;20026;-60
2021/12/15 11:28:33;;;;;;;27.05;16.25;;;;;;;1.72;69.40;95998.41;4989163;28;20497;-60
2021/12/15 11:31:08;;;;;;;25.10;15.13;;;;;;;1.79;69.48;96000.00;4990403;28;20035;-63
2021/12/15 11:33:38;;;;;;;21.50;13.43;;;;;;;1.79;68.98;95994.91;4990349;28;20124;-63
2021/12/15 11:36:11;;;;;;;19.23;10.60;;;;;;;1.62;69.08;95994.28;4989521;28;20035;-67
2021/12/15 11:38:40;;;;;;;28.15;16.08;;;;;;;1.63;69.69;96001.88;4990671;28;20053;-65
2021/12/15 11:41:17;;;;;;;22.33;14.40;;;;;;;1.80;68.98;95995.75;4989240;28;20055;-65
2021/12/15 11:43:52;;;;;;;23.85;15.40;;;;;;;1.96;68.73;95981.97;4989643;28;20038;-64
2021/12/15 11:46:23;;;;;;;25.20;14.77;;;;;;;2.10;68.03;95986.88;4989860;28;20022;-68
2021/12/15 11:49:02;;;;;;;19.13;12.98;;;;;;;2.04;70.53;95940.31;4988783;28;20411;-68
2021/12/15 11:51:50;;;;;;;21.60;13.77;;;;;;;2.29;66.82;95997.59;4989777;28;20042;-67
2021/12/15 11:54:20;;;;;;;18.55;12.55;;;;;;;2.17;66.94;95992.72;4989118;28;20026;-63
2021/12/15 11:56:59;;;;;;;18.03;12.10;;;;;;;2.21;67.18;95991.78;4989433;28;20113;-63
2021/12/15 11:59:40;;;;;;;20.83;14.82;;;;;;;2.20;67.40;95975.69;4989346;28;20375;-67
2021/12/15 12:02:09;;;;;;;20.02;13.07;;;;;;;2.37;66.80;95983.06;4990360;28;20437;-65
2021/12/15 12:04:40;;;;;;;18.02;12.48;;;;;;;2.33;66.55;95976.34;4989596;28;20026;-67
2021/12/15 12:07:15;;;;;;;18.05;13.20;;;;;;;2.37;67.15;95987.31;4989710;28;20706;-66
2021/12/15 12:09:43;;;;;;;20.80;11.98;;;;;;;2.27;66.94;95985.78;4998869;28;20030;-67
2021/12/15 12:12:10;;;;;;;21.23;12.55;;;;;;;2.14;67.66;95992.75;5008522;28;20026;-64
2021/12/15 12:14:39;;;;;;;20.38;13.68;;;;;;;2.12;67.99;95992.75;5009132;28;20040;-70
2021/12/15 12:17:12;;;;;;;20.55;14.43;;;;;;;1.98;67.17;95944.63;5009182;28;20111;-66
2021/12/15 12:19:44;;;;;;;21.65;14.60;;;;;;;1.67;67.00;95918.78;5008852;28;20042;-68
2021/12/15 12:22:11;;;;;;;18.63;13.50;;;;;;;2.07;67.52;95978.44;5009086;28;20083;-67
2021/12/15 12:24:37;;;;;;;14.77;8.45;;;;;;;1.63;67.16;95897.63;5000658;28;20034;-65
2021/12/15 12:27:05;;;;;;;21.70;14.32;;;;;;;2.22;67.05;95977.38;4989744;28;20026;-65
2021/12/15 12:29:31;;;;;;;16.38;10.00;;;;;;;2.13;67.25;95978.34;4989486;28;20026;-66
2021/12/15 12:31:56;;;;;;;15.98;9.68;;;;;;;1.76;67.45;95964.44;4989603;28;20041;-74
2021/12/15 12:34:22;;;;;;;15.13;10.20;;;;;;;1.70;68.40;95984.84;4989427;28;20034;-64
2021/12/15 12:36:48;;;;;;;18.08;10.43;;;;;;;1.59;68.80;95977.38;4989416;28;20034;-68
2021/12/15 12:39:21;;;;;;;18.65;10.85;;;;;;;1.08;69.25;95927.16;4996099;28;20030;-68
2021/12/15 12:41:49;;;;;;;19.60;11.80;;;;;;;1.35;69.99;95983.56;5008611;28;20022;-67
2021/12/15 12:44:20;;;;;;;20.02;12.15;;;;;;;1.40;70.33;95986.06;5008964;28;20436;-65
2021/12/15 12:47:00;;;;;;;20.40;12.82;;;;;;;1.29;70.29;96002.25;5008996;28;20084;-67